Aérodrome :
LOGIN :

S'inscrire | Disclaimer

   EN    FR    IT 

 










Légende :    VFR   VFR Marginal   IFR   IFR Intensif   IFR Très Intensif
Visi : 
Plafond : 
>= 8 km
>= 3000ft
5 à 8 km
1000 à 3000 ft
1500m à 5 km
500 à 1000 ft
800 à 1500m
200 à 500 ft
< 800m
< 200 ft
Symboles :   Orages  Brouillard  Fortes neiges  Fortes précipitations  Vent > 20 kt
SIGMETs :   Divers  Orages  Givrage  Turbulence  Onde Orograph.  Cendres Volcan.







- Altitude de l'aérodrome : 587 ft
- Code IATA : XCR
- Voir les cartes d'approche


LFOK - Chalons Vatry

DERNIER METAR :
  • 200730Z AUTO 18009KT 9999 OVC031 01/00 Q1023 BECMG OVC013

METARs EXPIRÉS :
  • 200700Z AUTO 18008KT 9999 OVC030 01/M00 Q1023 NOSIG
  • 200630Z AUTO 18005KT 9999 OVC030 01/M00 Q1023 NOSIG
  • 200600Z AUTO 18005KT 9999 OVC030 01/M00 Q1023 NOSIG
  • 200530Z AUTO 18004KT 9999 OVC030 00/M01 Q1023 NOSIG
  • 200500Z AUTO 18005KT 9999 OVC030 00/M01 Q1023 NOSIG

TAF TAF LFOK
Valide du 20 à 06h jusqu'au 21 à 06h UTC


200500Z 2006/2106 20010KT 9999 BKN030
BECMG 2009/2011 OVC013
TEMPO 2013/2106 1500 DZ OVC003
Pas de NOTAMs connus pour ce terrain.



MET'MAP, la Météo Aéronautique d'un coup d'oeil ! - Copyright ORBIFLY Décembre 2007 - Disclaimer

ORBIFLY MET'MAP TEAM :

Programmation & Développement : Alexandra Zaïnal
Conception & Développement : Baudouin d'Aumeries
Co-Programmation & Développement : Marc-Olivier Méhu
Soutien technique & logistique : Manuel Goepfert

Contact : metmap@orbifly.com




SOURCES & CREDITS :

   NOAA